Aguadulce, Spain
Current Conditions -  °F | °C
As of 7:00 AM on Wednesday 22 Oct 2014 (Local Time) from LEAM Reporting Station
Haze Haze  
Wind Chill: 64°   Ceiling: Unl
Heat Index: 64°   Visibility: 2.5mi
Dew Point: 61°   Wind: 3mph
Humidity: 88%   Direction: 60°ENE
Pressure: 30.15"   Gusts: NA
Location:  36.81°N, 2.57°W
Report Text: LEAM 220500Z 06003KT 4000 BR FEW001 18/16 Q1021
Loading
Personal Weather Stations






























Interactive Weather Map
Tropical Storm Tracking
New forecast layout! Learn more

10-Day Weather Forecast

Advertisements
Track Severe Weather on mobile